KDLN

Dillon Airport

Dillon, Montana, USA
METAR KDLN 162353Z AUTO 35004KT 10SM CLR 11/M01 A3037 RMK AO2 SLP290 T01061006 10128 20067 56007
Observed Flight Rules
Oct-16 @ 23:53 UTC (an hour ago) Visual Flight Rules
Wind Visibility Clouds
350° at 4 knots 10 miles
  • Clear skies
Temperatures Readings
Current 11°C / 52°F
Dewpoint -1°C / 30°F
Humidity 44%
Altimeter 30.37" Hg
Pressure 1029 hPa
Elevation 1591
METAR KDLN 162353Z AUTO 35004KT 10SM CLR 11/M01 A3037 RMK AO2 SLP290 T01061006 10128 20067 56007
Observed Flight Rules
Oct-16 @ 23:53 UTC
(an hour ago)
VFR
Wind Visibility
350° at 4 knots 10 miles
Clouds
  • Clear skies
Temperature Dewpoint
11°C / 52°F -1°C / 30°F
Humidity Altimeter Pressure
44% 30.37" Hg 1029 hPa